Time;durP1;ratioP1;P1;durP2;ratioP2;P2;SDS_P1;SDS_P2;PMS_P1;PMS_P2;Temp;Humidity;BMP_temperature;BMP_pressure;BME280_temperature;BME280_humidity;BME280_pressure;Samples;Min_cycle;Max_cycle;Signal;HPM_P1;HPM_P2
2023/06/25 00:01:50;;;;;;;3.63;2.20;;;17.20;99.90;;;;;;5035776;28;20040;-46
2023/06/25 00:04:16;;;;;;;4.38;2.30;;;17.20;99.90;;;;;;5069910;28;20018;-44
2023/06/25 00:06:42;;;;;;;4.00;2.10;;;17.20;99.90;;;;;;5035572;28;20029;-44
2023/06/25 00:09:07;;;;;;;5.10;2.05;;;17.30;99.90;;;;;;5037321;28;20044;-46
2023/06/25 00:11:33;;;;;;;3.83;2.25;;;17.30;99.90;;;;;;5035480;28;20100;-48
2023/06/25 00:13:58;;;;;;;3.25;1.85;;;17.30;99.90;;;;;;5037189;28;20053;-49
2023/06/25 00:16:29;;;;;;;3.00;1.88;;;17.30;99.90;;;;;;5035591;28;20041;-49
2023/06/25 00:18:57;;;;;;;3.55;1.80;;;17.30;99.90;;;;;;5035885;28;20101;-45
2023/06/25 00:21:23;;;;;;;3.67;2.20;;;17.20;99.90;;;;;;5036273;28;20025;-53
2023/06/25 00:23:49;;;;;;;3.78;1.98;;;17.10;99.90;;;;;;5035322;28;20083;-53
2023/06/25 00:26:14;;;;;;;5.55;1.80;;;17.00;99.90;;;;;;5037208;28;20053;-50
2023/06/25 00:28:40;;;;;;;7.82;1.85;;;16.90;99.90;;;;;;5051560;28;20040;-51
2023/06/25 00:31:05;;;;;;;2.90;1.60;;;16.80;99.90;;;;;;5052862;28;20025;-46
2023/06/25 00:33:34;;;;;;;3.80;1.60;;;16.70;99.90;;;;;;5052818;28;20359;-48
2023/06/25 00:36:06;;;;;;;4.90;1.55;;;16.70;99.90;;;;;;5052712;28;20032;-52
2023/06/25 00:38:33;;;;;;;2.22;1.45;;;16.60;99.90;;;;;;5052683;28;20032;-44
2023/06/25 00:40:58;;;;;;;2.80;1.60;;;16.60;99.90;;;;;;5052677;28;20462;-44
2023/06/25 00:43:24;;;;;;;3.03;1.48;;;16.50;99.90;;;;;;5052585;28;20025;-47
2023/06/25 00:45:50;;;;;;;3.78;1.55;;;16.50;99.90;;;;;;5052566;28;20171;-46
2023/06/25 00:48:15;;;;;;;2.92;1.70;;;16.50;99.90;;;;;;5052508;28;20035;-49
2023/06/25 00:50:42;;;;;;;2.40;1.40;;;16.40;99.90;;;;;;5052382;28;20017;-46
2023/06/25 00:53:09;;;;;;;2.47;1.60;;;16.40;99.90;;;;;;5052516;28;20025;-45
2023/06/25 00:55:35;;;;;;;2.65;1.70;;;16.40;99.90;;;;;;5052535;28;20025;-44
2023/06/25 00:58:00;;;;;;;3.35;2.00;;;16.40;99.90;;;;;;5052308;28;20040;-44
2023/06/25 01:00:28;;;;;;;3.70;1.83;;;16.40;99.90;;;;;;5052306;28;20031;-44
2023/06/25 01:03:12;;;;;;;4.00;1.95;;;16.40;99.90;;;;;;5052207;28;20029;-44
2023/06/25 01:05:43;;;;;;;3.45;1.73;;;16.40;99.90;;;;;;5052292;28;20029;-44
2023/06/25 01:08:10;;;;;;;2.78;1.50;;;16.40;99.90;;;;;;5052272;28;20029;-44
2023/06/25 01:10:37;;;;;;;3.00;1.55;;;16.40;99.90;;;;;;5052214;28;20020;-44
2023/06/25 01:13:04;;;;;;;2.35;1.30;;;16.20;99.90;;;;;;5051972;28;20048;-44
2023/06/25 01:15:30;;;;;;;4.95;2.13;;;16.20;99.90;;;;;;5052017;28;20082;-44
2023/06/25 01:17:57;;;;;;;2.67;1.60;;;16.20;99.90;;;;;;5051943;28;20037;-44
2023/06/25 01:20:26;;;;;;;3.08;1.70;;;16.20;99.90;;;;;;5051846;28;20021;-46
2023/06/25 01:22:52;;;;;;;2.38;1.67;;;16.10;99.90;;;;;;5051838;28;20033;-44
2023/06/25 01:25:18;;;;;;;3.80;1.88;;;16.10;99.90;;;;;;5051802;28;20079;-44
2023/06/25 01:27:44;;;;;;;2.67;1.80;;;16.10;99.90;;;;;;5051778;28;20033;-44
2023/06/25 01:30:11;;;;;;;2.80;1.80;;;16.10;99.90;;;;;;5051510;28;20048;-44
2023/06/25 01:32:41;;;;;;;2.65;1.55;;;16.20;99.90;;;;;;5051886;28;20390;-44
2023/06/25 01:35:07;;;;;;;3.72;2.05;;;16.20;99.90;;;;;;5051725;28;20163;-45
2023/06/25 01:37:33;;;;;;;4.00;2.15;;;16.20;99.90;;;;;;5051483;28;20039;-44
2023/06/25 01:39:59;;;;;;;3.97;2.03;;;16.20;99.90;;;;;;5051678;28;20021;-44
2023/06/25 01:42:25;;;;;;;2.85;1.80;;;16.10;99.90;;;;;;5051348;28;20112;-45
2023/06/25 01:44:50;;;;;;;2.60;1.63;;;16.10;99.90;;;;;;5051379;28;20482;-44
2023/06/25 01:47:16;;;;;;;2.72;1.55;;;16.10;99.90;;;;;;5050790;28;20028;-45
2023/06/25 01:49:42;;;;;;;3.50;1.50;;;16.10;99.90;;;;;;5051442;28;20032;-44
2023/06/25 01:52:08;;;;;;;2.95;1.30;;;16.10;99.90;;;;;;5051315;28;20033;-50
2023/06/25 01:54:34;;;;;;;2.28;1.50;;;16.00;99.90;;;;;;5051394;28;20021;-52
2023/06/25 01:57:01;;;;;;;2.47;1.50;;;16.00;99.90;;;;;;5051112;28;20033;-45
2023/06/25 01:59:27;;;;;;;3.22;1.60;;;16.00;99.90;;;;;;5049955;28;20016;-47
2023/06/25 02:01:53;;;;;;;3.80;1.80;;;15.90;99.90;;;;;;5051063;28;20506;-54
2023/06/25 02:04:19;;;;;;;3.45;1.55;;;15.90;99.90;;;;;;5050698;28;20066;-52
2023/06/25 02:06:45;;;;;;;2.85;1.60;;;15.90;99.90;;;;;;5050939;28;20029;-52
2023/06/25 02:09:10;;;;;;;2.63;1.58;;;15.90;99.90;;;;;;5050917;28;20017;-47
2023/06/25 02:11:36;;;;;;;4.30;1.52;;;15.90;99.90;;;;;;5051136;28;20147;-51
2023/06/25 02:14:03;;;;;;;2.65;1.60;;;15.90;99.90;;;;;;5050649;28;20044;-50
2023/06/25 02:16:29;;;;;;;2.60;1.60;;;15.90;99.90;;;;;;5051191;28;20112;-45
2023/06/25 02:18:54;;;;;;;2.58;1.58;;;15.90;99.90;;;;;;5050964;28;20498;-48
2023/06/25 02:21:20;;;;;;;3.35;1.80;;;15.90;99.90;;;;;;5050988;28;20033;-54
2023/06/25 02:23:46;;;;;;;3.35;1.70;;;15.90;99.90;;;;;;5050902;28;20024;-52
2023/06/25 02:26:11;;;;;;;3.10;1.63;;;15.90;99.90;;;;;;5050477;28;20024;-52
2023/06/25 02:28:37;;;;;;;3.30;1.70;;;15.90;99.90;;;;;;5050602;28;20032;-45
2023/06/25 02:31:03;;;;;;;4.00;1.90;;;15.90;99.90;;;;;;5050604;28;20075;-50
2023/06/25 02:33:28;;;;;;;4.20;1.80;;;15.90;99.90;;;;;;5050609;28;20101;-45
2023/06/25 02:35:54;;;;;;;2.63;1.63;;;15.90;99.90;;;;;;5050631;28;20033;-52
2023/06/25 02:38:20;;;;;;;6.55;1.52;;;15.90;99.90;;;;;;5050587;28;20032;-48
2023/06/25 02:40:45;;;;;;;2.83;1.83;;;15.80;99.90;;;;;;5049373;28;20470;-54
2023/06/25 02:43:11;;;;;;;2.75;1.67;;;15.90;99.90;;;;;;5050394;28;20056;-48
2023/06/25 02:45:36;;;;;;;2.63;1.42;;;15.80;99.90;;;;;;5050003;28;20013;-47
2023/06/25 02:48:02;;;;;;;2.97;1.48;;;15.80;99.90;;;;;;5050293;28;20720;-51
2023/06/25 02:50:28;;;;;;;6.22;1.50;;;15.80;99.90;;;;;;5050221;28;20021;-46
2023/06/25 02:52:53;;;;;;;2.88;1.60;;;15.80;99.90;;;;;;5050490;28;20025;-45
2023/06/25 02:55:19;;;;;;;2.95;1.40;;;15.80;99.90;;;;;;5050066;28;20462;-49
2023/06/25 02:57:44;;;;;;;3.70;1.55;;;15.80;99.90;;;;;;5050818;28;20062;-46
2023/06/25 03:00:10;;;;;;;4.25;1.50;;;15.80;99.90;;;;;;5054246;28;20013;-48
2023/06/25 03:02:36;;;;;;;2.88;1.60;;;15.80;99.90;;;;;;5054604;28;20021;-45
2023/06/25 03:05:01;;;;;;;3.13;1.60;;;15.80;99.90;;;;;;5054236;28;20028;-45
2023/06/25 03:07:27;;;;;;;3.80;2.05;;;15.80;99.90;;;;;;5054272;28;20445;-48
2023/06/25 03:09:53;;;;;;;7.53;2.10;;;15.80;99.90;;;;;;5054352;28;20545;-44
2023/06/25 03:12:18;;;;;;;2.58;1.50;;;15.80;99.90;;;;;;5054015;28;20024;-51
2023/06/25 03:14:44;;;;;;;1.83;1.27;;;15.80;99.90;;;;;;5053993;28;20041;-49
2023/06/25 03:17:09;;;;;;;3.58;1.60;;;15.70;99.90;;;;;;5053890;28;20037;-45
2023/06/25 03:19:35;;;;;;;3.45;1.70;;;15.70;99.90;;;;;;5054102;28;20013;-52
2023/06/25 03:22:00;;;;;;;2.92;1.58;;;15.70;99.90;;;;;;5053921;28;20033;-44
2023/06/25 03:24:26;;;;;;;2.95;1.70;;;15.70;99.90;;;;;;5054047;28;20496;-45
2023/06/25 03:26:52;;;;;;;3.55;1.90;;;15.70;99.90;;;;;;5054071;28;20044;-44
2023/06/25 03:29:17;;;;;;;2.85;1.63;;;15.60;99.90;;;;;;5053861;28;20049;-47
2023/06/25 03:31:43;;;;;;;4.40;1.77;;;15.60;99.90;;;;;;5053951;28;20397;-49
2023/06/25 03:34:09;;;;;;;2.83;1.50;;;15.60;99.90;;;;;;5053701;28;20032;-47
2023/06/25 03:36:34;;;;;;;3.30;1.83;;;15.60;99.90;;;;;;5053695;28;20120;-46
2023/06/25 03:39:00;;;;;;;3.47;1.50;;;15.60;99.90;;;;;;5053796;28;20088;-45
2023/06/25 03:41:26;;;;;;;2.80;1.60;;;15.60;99.90;;;;;;5053465;28;20036;-45
2023/06/25 03:43:52;;;;;;;1.83;1.30;;;15.50;99.90;;;;;;5053656;28;20025;-47
2023/06/25 03:46:17;;;;;;;4.82;1.90;;;15.60;99.90;;;;;;5053560;28;20732;-47
2023/06/25 03:48:44;;;;;;;3.03;1.58;;;15.60;99.90;;;;;;5053649;28;20021;-44
2023/06/25 03:51:10;;;;;;;2.42;1.33;;;15.60;99.90;;;;;;5053627;28;20037;-44
2023/06/25 03:53:38;;;;;;;3.45;1.73;;;15.60;99.90;;;;;;5053511;28;20017;-46
2023/06/25 03:56:04;;;;;;;3.88;2.40;;;15.70;99.90;;;;;;5053165;28;20020;-44
2023/06/25 03:58:30;;;;;;;3.03;1.90;;;15.70;99.90;;;;;;5053444;28;20108;-45
2023/06/25 04:00:56;;;;;;;4.50;2.20;;;15.80;99.90;;;;;;5052017;28;20541;-44
2023/06/25 04:03:21;;;;;;;5.05;2.47;;;15.90;99.90;;;;;;5053206;28;20103;-47
2023/06/25 04:05:48;;;;;;;3.70;2.45;;;16.00;99.90;;;;;;5053326;28;20025;-46
2023/06/25 04:08:14;;;;;;;5.75;2.83;;;16.10;99.90;;;;;;5052760;28;20061;-44
2023/06/25 04:10:40;;;;;;;3.92;2.75;;;16.20;99.90;;;;;;5052804;28;20051;-47
2023/06/25 04:13:06;;;;;;;7.57;2.90;;;16.30;99.90;;;;;;5053055;28;20053;-44
2023/06/25 04:15:32;;;;;;;5.25;2.97;;;16.40;99.90;;;;;;5052730;28;20173;-46
2023/06/25 04:17:57;;;;;;;6.63;3.28;;;16.50;99.90;;;;;;5052845;28;20425;-44
2023/06/25 04:20:26;;;;;;;8.55;3.90;;;16.60;99.90;;;;;;5052589;28;20432;-48
2023/06/25 04:22:52;;;;;;;8.18;3.95;;;16.70;99.90;;;;;;5052888;28;20033;-46
2023/06/25 04:25:17;;;;;;;7.95;4.05;;;16.80;99.90;;;;;;5052644;28;20036;-49
2023/06/25 04:27:43;;;;;;;6.43;4.28;;;16.90;99.90;;;;;;5052720;28;20052;-52
2023/06/25 04:30:09;;;;;;;7.32;4.53;;;17.00;99.90;;;;;;5052716;28;20036;-53
2023/06/25 04:32:35;;;;;;;9.43;4.60;;;17.00;99.90;;;;;;5052404;28;20021;-44
2023/06/25 04:35:00;;;;;;;8.93;4.68;;;17.10;99.90;;;;;;5052540;28;20049;-45
2023/06/25 04:37:26;;;;;;;8.80;4.63;;;17.20;99.90;;;;;;5052450;28;20167;-48
2023/06/25 04:39:52;;;;;;;12.48;4.93;;;17.30;99.90;;;;;;5052480;28;20409;-46
2023/06/25 04:42:17;;;;;;;10.90;4.78;;;17.30;99.90;;;;;;5052504;28;20623;-47
2023/06/25 04:44:43;;;;;;;8.38;4.63;;;17.30;99.90;;;;;;5052562;28;20036;-54
2023/06/25 04:47:08;;;;;;;10.52;5.03;;;17.40;99.90;;;;;;5052286;28;20025;-48
2023/06/25 04:49:34;;;;;;;7.75;4.85;;;17.50;99.90;;;;;;5052427;28;20025;-51
2023/06/25 04:52:00;;;;;;;9.00;4.68;;;17.60;99.90;;;;;;5052386;28;20466;-45
2023/06/25 04:54:25;;;;;;;9.15;4.70;;;17.70;99.90;;;;;;5052120;28;20108;-53
2023/06/25 04:56:51;;;;;;;9.40;4.38;;;17.80;99.90;;;;;;5052288;28;20041;-49
2023/06/25 04:59:16;;;;;;;6.63;4.38;;;18.10;99.90;;;;;;5052564;28;20028;-45
2023/06/25 05:01:42;;;;;;;9.80;4.22;;;18.40;99.90;;;;;;5052256;28;20470;-49
2023/06/25 05:04:08;;;;;;;6.47;4.50;;;18.70;99.90;;;;;;5052245;28;20071;-45
2023/06/25 05:06:34;;;;;;;9.18;4.25;;;19.00;99.90;;;;;;5052076;28;20482;-50
2023/06/25 05:08:59;;;;;;;11.38;5.15;;;19.30;99.90;;;;;;5051876;28;20488;-45
2023/06/25 05:11:25;;;;;;;10.27;4.45;;;19.60;99.90;;;;;;5052176;28;20025;-57
2023/06/25 05:13:50;;;;;;;7.55;4.88;;;19.60;99.90;;;;;;5051757;28;20410;-52
2023/06/25 05:16:16;;;;;;;6.20;3.70;;;19.70;99.90;;;;;;5052031;28;20040;-48
2023/06/25 05:18:42;;;;;;;7.10;3.92;;;19.70;99.90;;;;;;5051828;28;20140;-51
2023/06/25 05:21:07;;;;;;;6.43;4.18;;;19.80;99.90;;;;;;5051085;28;20492;-45
2023/06/25 05:23:44;;;;;;;6.28;4.05;;;19.80;99.90;;;;;;5050758;28;20737;-48
2023/06/25 05:26:10;;;;;;;7.47;3.72;;;19.70;99.90;;;;;;5051964;28;20028;-45
2023/06/25 05:28:37;;;;;;;7.90;4.43;;;19.80;99.90;;;;;;5052035;28;20025;-50
2023/06/25 05:31:02;;;;;;;7.90;3.97;;;19.80;99.90;;;;;;5051794;28;20147;-47
2023/06/25 05:33:28;;;;;;;6.80;3.90;;;19.70;99.90;;;;;;5051624;28;20068;-45
2023/06/25 05:35:53;;;;;;;5.63;3.58;;;19.70;99.90;;;;;;5051478;28;20025;-45
2023/06/25 05:38:19;;;;;;;6.68;3.97;;;19.60;99.90;;;;;;5051581;28;20530;-44
2023/06/25 05:40:45;;;;;;;6.25;3.47;;;19.70;99.90;;;;;;5051273;28;20025;-49
2023/06/25 05:43:11;;;;;;;6.72;3.63;;;19.80;99.90;;;;;;5051535;28;20049;-45
2023/06/25 05:45:36;;;;;;;6.70;3.30;;;20.00;99.90;;;;;;5051279;28;20447;-49
2023/06/25 05:48:02;;;;;;;5.05;3.50;;;20.10;99.90;;;;;;5051240;28;20029;-50
2023/06/25 05:50:27;;;;;;;6.20;3.25;;;20.20;99.90;;;;;;5051245;28;20037;-51
2023/06/25 05:52:53;;;;;;;6.03;3.00;;;20.40;99.90;;;;;;5051258;28;20480;-48
2023/06/25 05:55:19;;;;;;;5.10;3.03;;;20.70;99.90;;;;;;5051240;28;20079;-45
2023/06/25 05:57:44;;;;;;;4.13;2.42;;;21.20;99.90;;;;;;5051098;28;20414;-50
2023/06/25 06:00:11;;;;;;;6.30;3.15;;;21.70;99.90;;;;;;5051224;28;20100;-48
2023/06/25 06:02:36;;;;;;;5.00;2.75;;;22.20;99.90;;;;;;5051233;28;20031;-51
2023/06/25 06:05:02;;;;;;;5.03;2.70;;;22.70;99.90;;;;;;5049588;28;20112;-49
2023/06/25 06:07:28;;;;;;;4.07;2.78;;;23.20;99.90;;;;;;5066322;28;20029;-47
2023/06/25 06:09:53;;;;;;;4.97;2.72;;;23.40;99.90;;;;;;5051208;28;20032;-45
2023/06/25 06:12:19;;;;;;;4.85;2.25;;;23.60;99.90;;;;;;5050625;28;20025;-45
2023/06/25 06:14:44;;;;;;;4.68;2.20;;;24.00;99.90;;;;;;5050258;28;20049;-49
2023/06/25 06:17:11;;;;;;;5.30;2.67;;;24.30;99.90;;;;;;5049295;28;20102;-47
2023/06/25 06:19:37;;;;;;;3.63;2.17;;;24.00;99.90;;;;;;5049023;28;20048;-47
2023/06/25 06:22:02;;;;;;;3.90;2.40;;;24.60;99.90;;;;;;5048446;28;20424;-49
2023/06/25 06:24:28;;;;;;;4.32;2.10;;;24.80;99.90;;;;;;5049834;28;20020;-51
2023/06/25 06:26:54;;;;;;;5.05;2.45;;;25.10;99.90;;;;;;5050083;28;20029;-47
2023/06/25 06:29:19;;;;;;;5.20;2.50;;;25.40;99.90;;;;;;5049522;28;20013;-46
2023/06/25 06:31:45;;;;;;;3.17;2.00;;;25.40;99.90;;;;;;5049963;28;20029;-44
2023/06/25 06:34:11;;;;;;;3.22;2.13;;;26.00;99.90;;;;;;5049219;28;20029;-51
2023/06/25 06:36:37;;;;;;;3.17;2.00;;;26.20;99.90;;;;;;5049963;28;20466;-51
2023/06/25 06:39:03;;;;;;;3.63;2.30;;;26.50;99.90;;;;;;5050047;28;20071;-48
2023/06/25 06:41:29;;;;;;;3.78;2.40;;;26.60;99.90;;;;;;5049934;28;20130;-49
2023/06/25 06:44:09;;;;;;;6.88;2.50;;;26.80;99.90;;;;;;5049963;28;20032;-48
2023/06/25 06:46:34;;;;;;;3.30;1.98;;;26.60;99.90;;;;;;5049458;28;20025;-47
2023/06/25 06:49:00;;;;;;;3.65;2.17;;;26.70;99.90;;;;;;5049833;28;20032;-45
2023/06/25 06:51:25;;;;;;;4.97;2.47;;;26.50;99.90;;;;;;5049428;28;20025;-50
2023/06/25 06:53:51;;;;;;;7.57;2.30;;;26.50;99.90;;;;;;5049963;28;20484;-52
2023/06/25 06:56:17;;;;;;;4.68;2.40;;;27.00;99.90;;;;;;5049094;28;20040;-44
2023/06/25 06:58:42;;;;;;;5.22;2.30;;;26.80;99.90;;;;;;5049869;28;20071;-49
2023/06/25 07:01:08;;;;;;;4.35;2.25;;;26.90;99.90;;;;;;5049643;28;20406;-45
2023/06/25 07:03:33;;;;;;;3.55;2.22;;;27.40;99.90;;;;;;5049150;28;20036;-51
2023/06/25 07:05:59;;;;;;;3.72;2.13;;;27.50;99.90;;;;;;5049813;28;20029;-47
2023/06/25 07:08:25;;;;;;;3.22;2.05;;;27.30;99.90;;;;;;5049511;28;20031;-46
2023/06/25 07:10:50;;;;;;;3.78;2.10;;;27.70;99.90;;;;;;5050254;28;20040;-50
2023/06/25 07:13:16;;;;;;;3.03;2.05;;;27.90;99.90;;;;;;5050330;28;20043;-54
2023/06/25 07:15:41;;;;;;;3.83;2.33;;;27.50;99.90;;;;;;5050150;28;20384;-48
2023/06/25 07:18:07;;;;;;;4.43;2.30;;;28.00;99.90;;;;;;5050054;28;20040;-50
2023/06/25 07:20:33;;;;;;;3.30;2.03;;;27.60;99.90;;;;;;5049998;28;20024;-48
2023/06/25 07:22:58;;;;;;;3.25;2.10;;;28.00;99.90;;;;;;5050227;28;20040;-46
2023/06/25 07:25:24;;;;;;;4.80;2.67;;;27.50;99.90;;;;;;5050090;28;20055;-50
2023/06/25 07:27:49;;;;;;;4.38;2.17;;;27.30;99.90;;;;;;5050162;28;20032;-51
2023/06/25 07:30:15;;;;;;;4.80;2.05;;;27.80;99.90;;;;;;5049792;28;20017;-55
2023/06/25 07:32:41;;;;;;;3.42;1.98;;;27.80;99.90;;;;;;5049786;28;20025;-45
2023/06/25 07:35:07;;;;;;;4.18;2.30;;;28.20;99.90;;;;;;5049947;28;20056;-57
2023/06/25 07:37:33;;;;;;;3.78;2.47;;;28.70;99.90;;;;;;5050249;28;20071;-50
2023/06/25 07:39:58;;;;;;;3.60;2.10;;;28.60;99.90;;;;;;5050271;28;20079;-44
2023/06/25 07:42:24;;;;;;;3.42;2.20;;;28.90;99.90;;;;;;5049760;28;20075;-50
2023/06/25 07:44:49;;;;;;;4.18;2.30;;;29.00;99.90;;;;;;5051107;28;20053;-44
2023/06/25 07:47:15;;;;;;;3.83;2.03;;;29.10;99.90;;;;;;5053444;28;20032;-45
2023/06/25 07:49:41;;;;;;;4.10;2.08;;;29.50;99.90;;;;;;5053656;28;20032;-44
2023/06/25 07:52:07;;;;;;;3.90;2.00;;;30.10;99.90;;;;;;5053787;28;20036;-45
2023/06/25 07:54:32;;;;;;;3.33;2.05;;;29.80;99.90;;;;;;5053027;28;20017;-44
2023/06/25 07:56:58;;;;;;;3.60;1.88;;;30.20;99.90;;;;;;5053500;28;20433;-46
2023/06/25 07:59:24;;;;;;;4.00;2.38;;;30.30;99.90;;;;;;5053417;28;20021;-47
2023/06/25 08:01:49;;;;;;;2.47;1.70;;;30.10;99.90;;;;;;5053304;28;20106;-50
2023/06/25 08:04:15;;;;;;;4.88;2.13;;;30.60;99.90;;;;;;5053254;28;20021;-52
2023/06/25 08:06:40;;;;;;;2.50;1.75;;;30.50;99.90;;;;;;5053455;28;20028;-48
2023/06/25 08:09:06;;;;;;;3.60;2.25;;;30.00;98.80;;;;;;5053409;28;20043;-46
2023/06/25 08:11:31;;;;;;;3.50;2.05;;;29.90;98.30;;;;;;5053157;28;20385;-48
2023/06/25 08:13:57;;;;;;;3.28;1.88;;;29.40;99.00;;;;;;5052854;28;20033;-52
2023/06/25 08:16:23;;;;;;;3.08;2.05;;;30.00;99.90;;;;;;5053042;28;20079;-53
2023/06/25 08:18:49;;;;;;;4.53;2.00;;;30.60;99.30;;;;;;5051767;28;20443;-46
2023/06/25 08:21:15;;;;;;;4.22;1.63;;;30.90;98.80;;;;;;5053166;28;20032;-45
2023/06/25 08:23:40;;;;;;;3.10;1.83;;;31.10;99.60;;;;;;5053107;28;20025;-50
2023/06/25 08:26:06;;;;;;;2.95;1.83;;;31.40;99.00;;;;;;5052853;28;20367;-49
2023/06/25 08:28:32;;;;;;;4.25;2.15;;;31.60;96.50;;;;;;5052958;28;20033;-47
2023/06/25 08:30:58;;;;;;;3.35;1.73;;;31.60;98.60;;;;;;5051539;28;20052;-50
2023/06/25 08:33:23;;;;;;;2.88;2.03;;;31.50;96.50;;;;;;5046751;28;20026;-51
2023/06/25 08:35:49;;;;;;;2.63;1.70;;;31.70;98.80;;;;;;5047094;28;20120;-48
2023/06/25 08:38:17;;;;;;;3.55;2.35;;;32.00;96.60;;;;;;5049493;28;20048;-52
2023/06/25 08:40:46;;;;;;;4.43;2.17;;;32.10;98.00;;;;;;5039105;28;20033;-55
2023/06/25 08:43:12;;;;;;;3.58;2.00;;;32.20;96.50;;;;;;5033405;28;20051;-53
2023/06/25 08:45:38;;;;;;;3.38;1.77;;;32.10;95.60;;;;;;5034601;28;20112;-46
2023/06/25 08:48:09;;;;;;;2.80;1.83;;;32.10;94.20;;;;;;5036068;28;20088;-50
2023/06/25 08:50:35;;;;;;;3.88;2.40;;;32.20;94.10;;;;;;5034714;28;20025;-47
2023/06/25 08:53:01;;;;;;;2.97;1.88;;;32.00;93.70;;;;;;5036740;28;20459;-57
2023/06/25 08:55:28;;;;;;;2.95;2.00;;;31.70;92.80;;;;;;5033490;28;20032;-46
2023/06/25 08:57:53;;;;;;;5.30;1.88;;;31.70;96.70;;;;;;5036486;28;20031;-49
2023/06/25 09:00:19;;;;;;;3.53;2.00;;;31.80;93.10;;;;;;5034569;28;20374;-47
2023/06/25 09:02:44;;;;;;;4.40;2.08;;;31.50;93.70;;;;;;5035944;28;20041;-53
2023/06/25 09:05:12;;;;;;;4.00;2.20;;;31.70;93.70;;;;;;5035064;28;20022;-52
2023/06/25 09:07:45;;;;;;;3.72;2.28;;;31.80;92.50;;;;;;5039877;28;20079;-54
2023/06/25 09:10:12;;;;;;;3.47;2.28;;;31.70;93.10;;;;;;5051482;28;20033;-46
2023/06/25 09:12:38;;;;;;;2.97;1.95;;;31.80;92.80;;;;;;5034245;28;20053;-47
2023/06/25 09:15:06;;;;;;;3.67;2.30;;;31.80;92.90;;;;;;5037775;28;20083;-45
2023/06/25 09:17:31;;;;;;;5.50;2.55;;;31.80;93.30;;;;;;5037467;28;20037;-53
2023/06/25 09:20:07;;;;;;;4.20;1.90;;;32.00;93.50;;;;;;5040543;28;20380;-45
2023/06/25 09:22:33;;;;;;;3.25;2.28;;;32.30;95.90;;;;;;5036664;28;20029;-45
2023/06/25 09:25:00;;;;;;;3.80;2.28;;;32.30;93.00;;;;;;5035419;28;20390;-45
2023/06/25 09:27:25;;;;;;;3.13;2.17;;;32.40;90.40;;;;;;5037025;28;20481;-45
2023/06/25 09:29:56;;;;;;;5.45;2.17;;;32.60;91.70;;;;;;5036923;28;20028;-46
2023/06/25 09:32:21;;;;;;;4.35;2.25;;;32.70;91.90;;;;;;5037075;28;20079;-45
2023/06/25 09:34:47;;;;;;;5.72;2.38;;;32.20;90.30;;;;;;5036949;28;20048;-52
2023/06/25 09:37:13;;;;;;;3.72;2.22;;;32.20;91.60;;;;;;5036692;28;20048;-46
2023/06/25 09:39:39;;;;;;;3.15;1.95;;;32.20;91.10;;;;;;5035283;28;20021;-50
2023/06/25 09:42:06;;;;;;;3.58;2.15;;;32.10;90.00;;;;;;5036372;28;20061;-46
2023/06/25 09:44:34;;;;;;;4.63;2.25;;;32.10;91.10;;;;;;5038093;28;20021;-48
2023/06/25 09:47:06;;;;;;;3.03;1.92;;;32.00;90.80;;;;;;5038586;28;20033;-48
2023/06/25 09:49:32;;;;;;;3.53;2.40;;;32.20;90.50;;;;;;5046135;28;20086;-57
2023/06/25 09:52:15;;;;;;;3.08;1.90;;;32.40;91.50;;;;;;5037511;28;20553;-52
2023/06/25 09:54:42;;;;;;;3.95;1.88;;;32.60;88.50;;;;;;5045919;28;20620;-51
2023/06/25 09:57:16;;;;;;;2.83;1.83;;;32.60;87.80;;;;;;5046847;28;20127;-50
2023/06/25 09:59:42;;;;;;;2.90;1.98;;;32.70;91.80;;;;;;5037585;28;20155;-53
2023/06/25 10:02:08;;;;;;;3.25;2.10;;;32.60;90.10;;;;;;5038207;28;20108;-47
2023/06/25 10:04:34;;;;;;;3.30;1.95;;;32.90;88.80;;;;;;5042218;28;20032;-52
2023/06/25 10:07:02;;;;;;;3.35;1.95;;;32.90;90.00;;;;;;5039613;28;20056;-51
2023/06/25 10:09:28;;;;;;;4.65;2.17;;;32.50;84.80;;;;;;5051431;28;20029;-50
2023/06/25 10:11:56;;;;;;;4.55;2.00;;;32.70;89.00;;;;;;5051070;28;20036;-51
2023/06/25 10:14:22;;;;;;;7.93;2.20;;;33.10;90.10;;;;;;5050528;28;20060;-48
2023/06/25 10:16:56;;;;;;;3.55;2.22;;;33.30;88.50;;;;;;5048923;28;20041;-49
2023/06/25 10:19:22;;;;;;;2.90;2.00;;;33.30;88.20;;;;;;5049575;28;20265;-56
2023/06/25 10:21:59;;;;;;;3.30;1.90;;;33.40;84.10;;;;;;5049747;28;20481;-54
2023/06/25 10:24:25;;;;;;;3.67;2.03;;;33.50;82.40;;;;;;5049669;28;20027;-53
2023/06/25 10:26:55;;;;;;;3.53;2.08;;;33.00;82.00;;;;;;5050321;28;20045;-51
2023/06/25 10:29:21;;;;;;;3.25;1.92;;;32.60;81.20;;;;;;5050140;28;20041;-54
2023/06/25 10:31:48;;;;;;;4.70;2.40;;;32.30;84.40;;;;;;5050470;28;20079;-60
2023/06/25 10:34:14;;;;;;;3.20;1.90;;;32.30;88.40;;;;;;5045162;28;20025;-53
2023/06/25 10:36:52;;;;;;;4.00;2.40;;;32.30;87.50;;;;;;5031322;28;20034;-49
2023/06/25 10:39:17;;;;;;;4.65;2.30;;;32.50;83.50;;;;;;5031142;28;20028;-52
2023/06/25 10:41:46;;;;;;;3.20;2.22;;;32.40;87.30;;;;;;5033485;28;20030;-52
2023/06/25 10:44:12;;;;;;;4.25;2.20;;;32.30;84.70;;;;;;5036058;28;20025;-56
2023/06/25 10:46:38;;;;;;;3.15;1.90;;;32.50;85.50;;;;;;5033462;28;20027;-55
2023/06/25 10:49:03;;;;;;;3.05;1.98;;;32.40;85.10;;;;;;5037751;28;20124;-47
2023/06/25 10:51:29;;;;;;;2.92;2.00;;;32.50;86.60;;;;;;5033188;28;20048;-50
2023/06/25 10:53:55;;;;;;;5.38;2.10;;;32.60;85.20;;;;;;5034656;28;20118;-49
2023/06/25 10:56:24;;;;;;;3.40;2.08;;;32.60;85.60;;;;;;5041355;28;20022;-53
2023/06/25 10:58:59;;;;;;;3.50;2.35;;;32.40;79.30;;;;;;5043336;28;20136;-48
2023/06/25 11:01:31;;;;;;;5.50;2.30;;;32.10;83.60;;;;;;5044172;28;20025;-54
2023/06/25 11:03:58;;;;;;;3.70;2.28;;;31.80;80.00;;;;;;5037523;28;20056;-51
2023/06/25 11:06:24;;;;;;;4.22;2.22;;;31.60;84.20;;;;;;5047385;28;20021;-48
2023/06/25 11:08:50;;;;;;;6.47;2.20;;;31.60;84.40;;;;;;5050121;28;20116;-46
2023/06/25 11:11:15;;;;;;;3.25;2.13;;;31.70;85.40;;;;;;5040702;28;20018;-51
2023/06/25 11:13:41;;;;;;;4.00;2.10;;;31.70;89.70;;;;;;5035242;28;20473;-45
2023/06/25 11:16:06;;;;;;;3.60;2.03;;;31.90;85.70;;;;;;5034279;28;20022;-46
2023/06/25 11:18:32;;;;;;;3.88;2.15;;;32.20;87.10;;;;;;5048208;28;20480;-43
2023/06/25 11:20:59;;;;;;;3.88;2.20;;;32.50;89.40;;;;;;5054188;28;20017;-49
2023/06/25 11:23:26;;;;;;;3.20;1.95;;;32.70;85.40;;;;;;5053661;28;20033;-47
2023/06/25 11:25:51;;;;;;;5.63;1.92;;;33.10;90.50;;;;;;5040314;28;20028;-45
2023/06/25 11:28:17;;;;;;;5.80;1.90;;;33.20;86.60;;;;;;5053932;28;20025;-51
2023/06/25 11:30:44;;;;;;;4.28;2.15;;;33.10;88.20;;;;;;5054063;28;20044;-46
2023/06/25 11:33:15;;;;;;;5.00;1.83;;;33.10;86.10;;;;;;5038709;28;20033;-48
2023/06/25 11:35:42;;;;;;;3.20;2.00;;;32.90;81.30;;;;;;5036566;28;20504;-42
2023/06/25 11:38:08;;;;;;;3.65;1.90;;;33.00;90.90;;;;;;5049309;28;20095;-45
2023/06/25 11:40:36;;;;;;;6.45;2.17;;;33.10;85.40;;;;;;5053238;28;20413;-47
2023/06/25 11:43:02;;;;;;;;;;;33.20;82.10;;;;;;5053249;28;20028;-47
2023/06/25 11:45:42;;;;;;;4.68;2.22;;;33.00;82.20;;;;;;5053301;28;19905;-52
2023/06/25 11:48:12;;;;;;;4.07;1.90;;;33.10;84.50;;;;;;5053086;28;20028;-49
2023/06/25 11:50:38;;;;;;;3.63;2.10;;;32.90;80.30;;;;;;5053269;28;20064;-50
2023/06/25 11:53:04;;;;;;;3.30;2.08;;;32.80;87.90;;;;;;5053286;28;20100;-54
2023/06/25 11:55:29;;;;;;;3.80;2.30;;;32.70;88.90;;;;;;5049411;28;20091;-45
2023/06/25 11:57:55;;;;;;;3.83;2.17;;;32.50;78.90;;;;;;5043170;28;20327;-57
2023/06/25 12:00:21;;;;;;;3.40;2.22;;;32.10;82.00;;;;;;5050082;28;20013;-44
2023/06/25 12:02:46;;;;;;;4.28;2.63;;;31.90;84.40;;;;;;5051850;28;20029;-47
2023/06/25 12:05:13;;;;;;;3.42;2.33;;;31.80;86.40;;;;;;5050716;28;20025;-51
2023/06/25 12:07:38;;;;;;;3.42;2.28;;;31.70;82.00;;;;;;5085105;28;20025;-51
2023/06/25 12:10:05;;;;;;;4.20;2.08;;;31.60;86.20;;;;;;5053317;28;20436;-45
2023/06/25 12:12:30;;;;;;;3.35;2.17;;;31.80;88.90;;;;;;5053220;28;20489;-51
2023/06/25 12:14:56;;;;;;;3.10;2.10;;;31.90;86.30;;;;;;5053158;28;20194;-53
2023/06/25 12:17:21;;;;;;;3.60;2.10;;;31.80;83.70;;;;;;5052892;28;20029;-47
2023/06/25 12:19:47;;;;;;;3.78;2.10;;;31.50;83.90;;;;;;5053231;28;20052;-48
2023/06/25 12:22:13;;;;;;;3.70;2.10;;;31.30;91.20;;;;;;5052899;28;20112;-44
2023/06/25 12:24:38;;;;;;;4.03;2.53;;;31.20;89.00;;;;;;5053158;28;20025;-45
2023/06/25 12:27:04;;;;;;;5.32;2.35;;;31.00;90.10;;;;;;5053046;28;20021;-46
2023/06/25 12:29:31;;;;;;;4.55;2.40;;;31.00;90.40;;;;;;5052578;28;20022;-47
2023/06/25 12:31:56;;;;;;;3.70;2.08;;;31.00;86.00;;;;;;5052278;28;20033;-48
2023/06/25 12:34:22;;;;;;;4.00;2.50;;;30.90;90.90;;;;;;5035302;28;20394;-52
2023/06/25 12:36:48;;;;;;;3.95;2.20;;;30.90;89.30;;;;;;5033009;28;20084;-43
2023/06/25 12:39:13;;;;;;;4.13;2.20;;;30.60;87.80;;;;;;5033562;28;20036;-51
2023/06/25 12:41:39;;;;;;;4.13;2.58;;;30.20;87.10;;;;;;5032776;28;20026;-44
2023/06/25 12:44:04;;;;;;;3.88;2.42;;;30.00;90.20;;;;;;5044474;28;20389;-49